sensor_id;sensor_type;location;lat;lon;timestamp;P1;durP1;ratioP1;P2;durP2;ratioP2
63693;SDS011;49839;51.798;10.954;2022-07-22T00:00:33;7.35;;;4.35;;
63693;SDS011;49839;51.798;10.954;2022-07-22T00:03:01;5.63;;;4.28;;
63693;SDS011;49839;51.798;10.954;2022-07-22T00:05:29;5.18;;;3.67;;
63693;SDS011;49839;51.798;10.954;2022-07-22T00:07:56;6.40;;;4.05;;
63693;SDS011;49839;51.798;10.954;2022-07-22T00:10:24;8.27;;;3.60;;
63693;SDS011;49839;51.798;10.954;2022-07-22T00:12:52;5.35;;;3.65;;
63693;SDS011;49839;51.798;10.954;2022-07-22T00:15:21;5.75;;;3.30;;
63693;SDS011;49839;51.798;10.954;2022-07-22T00:17:48;6.15;;;3.10;;
63693;SDS011;49839;51.798;10.954;2022-07-22T00:20:16;4.18;;;2.90;;
63693;SDS011;49839;51.798;10.954;2022-07-22T00:22:45;6.70;;;3.20;;
63693;SDS011;49839;51.798;10.954;2022-07-22T00:25:13;4.00;;;3.10;;
63693;SDS011;49839;51.798;10.954;2022-07-22T00:27:41;5.50;;;3.42;;
63693;SDS011;49839;51.798;10.954;2022-07-22T00:30:09;6.97;;;3.92;;
63693;SDS011;49839;51.798;10.954;2022-07-22T00:32:38;5.10;;;3.30;;
63693;SDS011;49839;51.798;10.954;2022-07-22T00:35:06;8.38;;;3.30;;
63693;SDS011;49839;51.798;10.954;2022-07-22T00:37:34;6.18;;;3.47;;
63693;SDS011;49839;51.798;10.954;2022-07-22T00:40:02;6.40;;;3.70;;
63693;SDS011;49839;51.798;10.954;2022-07-22T00:42:30;5.10;;;3.40;;
63693;SDS011;49839;51.798;10.954;2022-07-22T00:44:58;6.70;;;3.70;;
63693;SDS011;49839;51.798;10.954;2022-07-22T00:47:26;4.80;;;3.17;;
63693;SDS011;49839;51.798;10.954;2022-07-22T00:49:55;8.15;;;3.50;;
63693;SDS011;49839;51.798;10.954;2022-07-22T00:52:22;6.50;;;3.20;;
63693;SDS011;49839;51.798;10.954;2022-07-22T00:54:50;5.13;;;2.72;;
63693;SDS011;49839;51.798;10.954;2022-07-22T00:57:18;4.72;;;2.92;;
63693;SDS011;49839;51.798;10.954;2022-07-22T00:59:46;4.60;;;2.90;;
63693;SDS011;49839;51.798;10.954;2022-07-22T01:02:14;4.95;;;2.58;;
63693;SDS011;49839;51.798;10.954;2022-07-22T01:04:41;6.70;;;2.95;;
63693;SDS011;49839;51.798;10.954;2022-07-22T01:07:10;4.43;;;3.00;;
63693;SDS011;49839;51.798;10.954;2022-07-22T01:09:41;5.07;;;3.17;;
63693;SDS011;49839;51.798;10.954;2022-07-22T01:12:09;4.90;;;3.35;;
63693;SDS011;49839;51.798;10.954;2022-07-22T01:14:37;5.47;;;2.75;;
63693;SDS011;49839;51.798;10.954;2022-07-22T01:17:05;5.40;;;2.88;;
63693;SDS011;49839;51.798;10.954;2022-07-22T01:19:33;5.85;;;2.72;;
63693;SDS011;49839;51.798;10.954;2022-07-22T01:22:04;4.63;;;2.70;;
63693;SDS011;49839;51.798;10.954;2022-07-22T01:24:31;3.63;;;2.50;;
63693;SDS011;49839;51.798;10.954;2022-07-22T01:26:59;5.25;;;2.80;;
63693;SDS011;49839;51.798;10.954;2022-07-22T01:29:27;4.40;;;2.53;;
63693;SDS011;49839;51.798;10.954;2022-07-22T01:31:55;7.15;;;2.50;;
63693;SDS011;49839;51.798;10.954;2022-07-22T01:34:23;4.07;;;2.83;;
63693;SDS011;49839;51.798;10.954;2022-07-22T01:36:50;6.68;;;2.95;;
63693;SDS011;49839;51.798;10.954;2022-07-22T01:39:19;4.70;;;3.03;;
63693;SDS011;49839;51.798;10.954;2022-07-22T01:41:47;6.45;;;3.40;;
63693;SDS011;49839;51.798;10.954;2022-07-22T01:44:14;4.22;;;2.65;;
63693;SDS011;49839;51.798;10.954;2022-07-22T01:46:42;5.18;;;3.00;;
63693;SDS011;49839;51.798;10.954;2022-07-22T01:49:12;4.57;;;2.92;;
63693;SDS011;49839;51.798;10.954;2022-07-22T01:51:41;4.93;;;3.00;;
63693;SDS011;49839;51.798;10.954;2022-07-22T01:54:09;4.78;;;3.00;;
63693;SDS011;49839;51.798;10.954;2022-07-22T01:56:38;4.05;;;2.80;;
63693;SDS011;49839;51.798;10.954;2022-07-22T01:59:05;5.40;;;3.00;;
63693;SDS011;49839;51.798;10.954;2022-07-22T02:01:33;4.35;;;3.20;;
63693;SDS011;49839;51.798;10.954;2022-07-22T02:04:01;4.78;;;2.92;;
63693;SDS011;49839;51.798;10.954;2022-07-22T02:06:29;5.88;;;3.15;;
63693;SDS011;49839;51.798;10.954;2022-07-22T02:08:57;6.75;;;3.70;;
63693;SDS011;49839;51.798;10.954;2022-07-22T02:11:25;4.45;;;3.05;;
63693;SDS011;49839;51.798;10.954;2022-07-22T02:13:54;4.68;;;3.05;;
63693;SDS011;49839;51.798;10.954;2022-07-22T02:16:22;5.10;;;3.05;;
63693;SDS011;49839;51.798;10.954;2022-07-22T02:18:50;5.20;;;2.90;;
63693;SDS011;49839;51.798;10.954;2022-07-22T02:21:19;4.47;;;3.03;;
63693;SDS011;49839;51.798;10.954;2022-07-22T02:23:48;4.85;;;2.92;;
63693;SDS011;49839;51.798;10.954;2022-07-22T02:26:16;6.03;;;3.10;;
63693;SDS011;49839;51.798;10.954;2022-07-22T02:28:43;6.20;;;3.13;;
63693;SDS011;49839;51.798;10.954;2022-07-22T02:31:12;6.95;;;2.85;;
63693;SDS011;49839;51.798;10.954;2022-07-22T02:33:40;5.07;;;3.05;;
63693;SDS011;49839;51.798;10.954;2022-07-22T02:36:08;6.65;;;3.15;;
63693;SDS011;49839;51.798;10.954;2022-07-22T02:38:37;7.68;;;3.13;;
63693;SDS011;49839;51.798;10.954;2022-07-22T02:41:05;8.25;;;3.00;;
63693;SDS011;49839;51.798;10.954;2022-07-22T02:43:33;4.93;;;2.60;;
63693;SDS011;49839;51.798;10.954;2022-07-22T02:46:01;5.70;;;3.08;;
63693;SDS011;49839;51.798;10.954;2022-07-22T02:48:30;4.43;;;2.80;;
63693;SDS011;49839;51.798;10.954;2022-07-22T02:50:59;4.78;;;2.92;;
63693;SDS011;49839;51.798;10.954;2022-07-22T02:53:27;4.78;;;2.80;;
63693;SDS011;49839;51.798;10.954;2022-07-22T02:55:55;4.38;;;2.15;;
63693;SDS011;49839;51.798;10.954;2022-07-22T02:58:22;4.78;;;2.40;;
63693;SDS011;49839;51.798;10.954;2022-07-22T03:00:50;4.18;;;2.40;;
63693;SDS011;49839;51.798;10.954;2022-07-22T03:03:18;4.95;;;2.50;;
63693;SDS011;49839;51.798;10.954;2022-07-22T03:05:47;5.35;;;2.58;;
63693;SDS011;49839;51.798;10.954;2022-07-22T03:08:14;5.70;;;2.25;;
63693;SDS011;49839;51.798;10.954;2022-07-22T03:10:42;5.20;;;2.00;;
63693;SDS011;49839;51.798;10.954;2022-07-22T03:13:10;3.97;;;1.80;;
63693;SDS011;49839;51.798;10.954;2022-07-22T03:15:37;4.88;;;2.10;;
63693;SDS011;49839;51.798;10.954;2022-07-22T03:18:05;2.90;;;1.80;;
63693;SDS011;49839;51.798;10.954;2022-07-22T03:20:33;3.17;;;1.73;;
63693;SDS011;49839;51.798;10.954;2022-07-22T03:23:02;5.97;;;1.80;;
63693;SDS011;49839;51.798;10.954;2022-07-22T03:25:30;3.85;;;2.13;;
63693;SDS011;49839;51.798;10.954;2022-07-22T03:27:58;3.72;;;1.50;;
63693;SDS011;49839;51.798;10.954;2022-07-22T03:30:26;2.70;;;1.55;;
63693;SDS011;49839;51.798;10.954;2022-07-22T03:32:53;2.00;;;1.20;;
63693;SDS011;49839;51.798;10.954;2022-07-22T03:35:21;2.55;;;1.20;;
63693;SDS011;49839;51.798;10.954;2022-07-22T03:37:49;3.95;;;1.40;;
63693;SDS011;49839;51.798;10.954;2022-07-22T03:40:18;2.22;;;1.35;;
63693;SDS011;49839;51.798;10.954;2022-07-22T03:42:46;2.05;;;1.20;;
63693;SDS011;49839;51.798;10.954;2022-07-22T03:45:13;1.70;;;1.13;;
63693;SDS011;49839;51.798;10.954;2022-07-22T03:47:41;2.05;;;1.10;;
63693;SDS011;49839;51.798;10.954;2022-07-22T03:50:09;2.15;;;1.08;;
63693;SDS011;49839;51.798;10.954;2022-07-22T03:52:36;2.00;;;1.20;;
63693;SDS011;49839;51.798;10.954;2022-07-22T03:55:04;3.70;;;1.33;;
63693;SDS011;49839;51.798;10.954;2022-07-22T03:57:34;2.95;;;1.10;;
63693;SDS011;49839;51.798;10.954;2022-07-22T04:00:02;2.08;;;1.20;;
63693;SDS011;49839;51.798;10.954;2022-07-22T04:02:30;1.50;;;1.08;;
63693;SDS011;49839;51.798;10.954;2022-07-22T04:04:57;2.25;;;1.30;;
63693;SDS011;49839;51.798;10.954;2022-07-22T04:07:25;1.67;;;1.20;;
63693;SDS011;49839;51.798;10.954;2022-07-22T04:09:53;1.73;;;1.10;;
63693;SDS011;49839;51.798;10.954;2022-07-22T04:12:31;1.40;;;1.00;;
63693;SDS011;49839;51.798;10.954;2022-07-22T04:15:01;2.55;;;1.33;;
63693;SDS011;49839;51.798;10.954;2022-07-22T04:17:29;1.83;;;1.23;;
63693;SDS011;49839;51.798;10.954;2022-07-22T04:19:57;3.00;;;1.30;;
63693;SDS011;49839;51.798;10.954;2022-07-22T04:22:25;2.45;;;1.30;;
63693;SDS011;49839;51.798;10.954;2022-07-22T04:24:53;3.83;;;1.45;;
63693;SDS011;49839;51.798;10.954;2022-07-22T04:27:21;3.15;;;1.40;;
63693;SDS011;49839;51.798;10.954;2022-07-22T04:29:51;2.13;;;1.50;;
63693;SDS011;49839;51.798;10.954;2022-07-22T04:32:19;3.95;;;1.50;;
63693;SDS011;49839;51.798;10.954;2022-07-22T04:34:46;2.38;;;1.52;;
63693;SDS011;49839;51.798;10.954;2022-07-22T04:37:14;4.90;;;1.95;;
63693;SDS011;49839;51.798;10.954;2022-07-22T04:39:42;2.92;;;1.60;;
63693;SDS011;49839;51.798;10.954;2022-07-22T04:42:09;3.35;;;1.80;;
63693;SDS011;49839;51.798;10.954;2022-07-22T04:44:37;4.25;;;1.50;;
63693;SDS011;49839;51.798;10.954;2022-07-22T04:47:06;4.03;;;1.27;;
63693;SDS011;49839;51.798;10.954;2022-07-22T04:49:34;2.85;;;1.30;;
63693;SDS011;49839;51.798;10.954;2022-07-22T04:52:02;2.38;;;1.50;;
63693;SDS011;49839;51.798;10.954;2022-07-22T04:54:30;4.78;;;1.80;;
63693;SDS011;49839;51.798;10.954;2022-07-22T04:56:57;3.38;;;1.23;;
63693;SDS011;49839;51.798;10.954;2022-07-22T04:59:25;2.67;;;1.40;;
63693;SDS011;49839;51.798;10.954;2022-07-22T05:01:53;2.00;;;1.40;;
63693;SDS011;49839;51.798;10.954;2022-07-22T05:04:22;2.97;;;1.55;;
63693;SDS011;49839;51.798;10.954;2022-07-22T05:06:50;2.55;;;1.40;;
63693;SDS011;49839;51.798;10.954;2022-07-22T05:09:17;3.58;;;1.45;;
63693;SDS011;49839;51.798;10.954;2022-07-22T05:11:45;5.75;;;1.40;;
63693;SDS011;49839;51.798;10.954;2022-07-22T05:14:13;2.28;;;1.50;;
63693;SDS011;49839;51.798;10.954;2022-07-22T05:16:40;2.75;;;1.63;;
63693;SDS011;49839;51.798;10.954;2022-07-22T05:19:08;5.50;;;1.48;;
63693;SDS011;49839;51.798;10.954;2022-07-22T05:21:37;3.15;;;1.50;;
63693;SDS011;49839;51.798;10.954;2022-07-22T05:24:05;4.45;;;2.08;;
63693;SDS011;49839;51.798;10.954;2022-07-22T05:26:33;2.13;;;1.25;;
63693;SDS011;49839;51.798;10.954;2022-07-22T05:29:01;3.33;;;1.50;;
63693;SDS011;49839;51.798;10.954;2022-07-22T05:31:28;3.60;;;1.10;;
63693;SDS011;49839;51.798;10.954;2022-07-22T05:33:56;1.83;;;1.05;;
63693;SDS011;49839;51.798;10.954;2022-07-22T05:36:23;1.45;;;1.10;;
63693;SDS011;49839;51.798;10.954;2022-07-22T05:38:53;1.73;;;1.00;;
63693;SDS011;49839;51.798;10.954;2022-07-22T05:43:49;1.73;;;0.95;;
63693;SDS011;49839;51.798;10.954;2022-07-22T05:46:16;0.70;;;0.60;;
63693;SDS011;49839;51.798;10.954;2022-07-22T05:48:44;0.80;;;0.50;;
63693;SDS011;49839;51.798;10.954;2022-07-22T05:51:12;3.15;;;1.10;;
63693;SDS011;49839;51.798;10.954;2022-07-22T05:53:40;4.28;;;1.60;;
63693;SDS011;49839;51.798;10.954;2022-07-22T05:56:10;3.87;;;2.37;;
63693;SDS011;49839;51.798;10.954;2022-07-22T05:58:38;4.53;;;2.20;;
63693;SDS011;49839;51.798;10.954;2022-07-22T06:01:06;6.75;;;2.70;;
63693;SDS011;49839;51.798;10.954;2022-07-22T06:03:34;4.13;;;2.80;;
63693;SDS011;49839;51.798;10.954;2022-07-22T06:06:02;4.05;;;2.20;;
63693;SDS011;49839;51.798;10.954;2022-07-22T06:08:31;5.65;;;2.35;;
63693;SDS011;49839;51.798;10.954;2022-07-22T06:10:59;3.08;;;2.20;;
63693;SDS011;49839;51.798;10.954;2022-07-22T06:13:28;2.92;;;1.80;;
63693;SDS011;49839;51.798;10.954;2022-07-22T06:15:56;2.85;;;1.70;;
63693;SDS011;49839;51.798;10.954;2022-07-22T06:18:23;3.03;;;1.65;;
63693;SDS011;49839;51.798;10.954;2022-07-22T06:20:51;2.17;;;1.60;;
63693;SDS011;49839;51.798;10.954;2022-07-22T06:23:19;2.67;;;1.60;;
63693;SDS011;49839;51.798;10.954;2022-07-22T06:25:46;3.97;;;2.35;;
63693;SDS011;49839;51.798;10.954;2022-07-22T06:28:14;4.10;;;2.60;;
63693;SDS011;49839;51.798;10.954;2022-07-22T06:30:43;5.47;;;3.22;;
63693;SDS011;49839;51.798;10.954;2022-07-22T06:33:10;5.60;;;3.20;;
63693;SDS011;49839;51.798;10.954;2022-07-22T06:35:38;6.25;;;2.97;;
63693;SDS011;49839;51.798;10.954;2022-07-22T06:38:07;9.27;;;3.78;;
63693;SDS011;49839;51.798;10.954;2022-07-22T06:40:43;6.72;;;3.50;;
63693;SDS011;49839;51.798;10.954;2022-07-22T06:43:11;5.07;;;3.35;;
63693;SDS011;49839;51.798;10.954;2022-07-22T06:45:39;8.75;;;3.78;;
63693;SDS011;49839;51.798;10.954;2022-07-22T06:48:08;6.10;;;4.13;;
63693;SDS011;49839;51.798;10.954;2022-07-22T06:50:36;7.07;;;4.15;;
63693;SDS011;49839;51.798;10.954;2022-07-22T06:53:04;6.82;;;4.15;;
63693;SDS011;49839;51.798;10.954;2022-07-22T06:55:32;6.10;;;4.07;;
63693;SDS011;49839;51.798;10.954;2022-07-22T06:58:00;8.20;;;3.97;;
63693;SDS011;49839;51.798;10.954;2022-07-22T07:00:28;7.05;;;3.85;;
63693;SDS011;49839;51.798;10.954;2022-07-22T07:02:57;5.90;;;3.72;;
63693;SDS011;49839;51.798;10.954;2022-07-22T07:08:13;5.30;;;2.85;;
63693;SDS011;49839;51.798;10.954;2022-07-22T07:10:41;4.95;;;2.78;;
63693;SDS011;49839;51.798;10.954;2022-07-22T07:13:09;8.63;;;2.80;;
63693;SDS011;49839;51.798;10.954;2022-07-22T07:15:36;4.75;;;2.60;;
63693;SDS011;49839;51.798;10.954;2022-07-22T07:18:04;6.63;;;3.10;;
63693;SDS011;49839;51.798;10.954;2022-07-22T07:20:32;5.03;;;2.92;;
63693;SDS011;49839;51.798;10.954;2022-07-22T07:23:01;4.60;;;2.80;;
63693;SDS011;49839;51.798;10.954;2022-07-22T07:25:29;3.75;;;2.38;;
63693;SDS011;49839;51.798;10.954;2022-07-22T07:27:57;4.90;;;2.63;;
63693;SDS011;49839;51.798;10.954;2022-07-22T07:30:25;4.10;;;2.45;;
63693;SDS011;49839;51.798;10.954;2022-07-22T07:32:53;3.75;;;2.70;;
63693;SDS011;49839;51.798;10.954;2022-07-22T07:35:21;7.60;;;4.13;;
63693;SDS011;49839;51.798;10.954;2022-07-22T07:37:53;7.10;;;3.58;;
63693;SDS011;49839;51.798;10.954;2022-07-22T07:40:22;6.05;;;3.60;;
63693;SDS011;49839;51.798;10.954;2022-07-22T07:42:49;5.78;;;3.50;;
63693;SDS011;49839;51.798;10.954;2022-07-22T07:45:27;7.05;;;4.00;;
63693;SDS011;49839;51.798;10.954;2022-07-22T07:47:55;4.82;;;3.17;;
63693;SDS011;49839;51.798;10.954;2022-07-22T07:50:23;4.65;;;3.17;;
63693;SDS011;49839;51.798;10.954;2022-07-22T07:52:51;4.43;;;3.00;;
63693;SDS011;49839;51.798;10.954;2022-07-22T07:55:19;8.30;;;3.50;;
63693;SDS011;49839;51.798;10.954;2022-07-22T07:57:48;5.97;;;3.20;;
63693;SDS011;49839;51.798;10.954;2022-07-22T08:00:21;5.63;;;3.42;;
63693;SDS011;49839;51.798;10.954;2022-07-22T08:02:53;5.60;;;2.85;;
63693;SDS011;49839;51.798;10.954;2022-07-22T08:05:22;5.20;;;3.30;;
63693;SDS011;49839;51.798;10.954;2022-07-22T08:07:49;6.50;;;3.03;;
63693;SDS011;49839;51.798;10.954;2022-07-22T08:10:18;4.05;;;2.60;;
63693;SDS011;49839;51.798;10.954;2022-07-22T08:13:07;3.70;;;2.70;;
63693;SDS011;49839;51.798;10.954;2022-07-22T08:15:35;4.35;;;2.90;;
63693;SDS011;49839;51.798;10.954;2022-07-22T08:18:03;6.63;;;3.00;;
63693;SDS011;49839;51.798;10.954;2022-07-22T08:20:31;4.35;;;2.33;;
63693;SDS011;49839;51.798;10.954;2022-07-22T08:22:59;4.20;;;2.83;;
63693;SDS011;49839;51.798;10.954;2022-07-22T08:25:26;4.13;;;2.35;;
63693;SDS011;49839;51.798;10.954;2022-07-22T08:27:54;3.67;;;2.40;;
63693;SDS011;49839;51.798;10.954;2022-07-22T08:30:24;4.60;;;2.50;;
63693;SDS011;49839;51.798;10.954;2022-07-22T08:32:53;5.40;;;2.20;;
63693;SDS011;49839;51.798;10.954;2022-07-22T08:35:21;4.93;;;2.30;;
63693;SDS011;49839;51.798;10.954;2022-07-22T08:37:49;4.65;;;3.03;;
63693;SDS011;49839;51.798;10.954;2022-07-22T08:40:17;3.95;;;2.40;;
63693;SDS011;49839;51.798;10.954;2022-07-22T08:42:46;3.38;;;2.22;;
63693;SDS011;49839;51.798;10.954;2022-07-22T08:45:15;2.80;;;2.00;;
63693;SDS011;49839;51.798;10.954;2022-07-22T08:47:46;4.50;;;2.53;;
63693;SDS011;49839;51.798;10.954;2022-07-22T08:50:14;6.10;;;2.58;;
63693;SDS011;49839;51.798;10.954;2022-07-22T08:52:42;3.38;;;2.10;;
63693;SDS011;49839;51.798;10.954;2022-07-22T08:55:10;4.30;;;2.17;;
63693;SDS011;49839;51.798;10.954;2022-07-22T08:57:43;4.75;;;2.40;;
63693;SDS011;49839;51.798;10.954;2022-07-22T09:00:12;3.58;;;2.30;;
63693;SDS011;49839;51.798;10.954;2022-07-22T09:02:42;4.20;;;2.30;;
63693;SDS011;49839;51.798;10.954;2022-07-22T09:05:12;4.72;;;2.28;;
63693;SDS011;49839;51.798;10.954;2022-07-22T09:08:01;4.15;;;2.38;;
63693;SDS011;49839;51.798;10.954;2022-07-22T09:10:31;5.15;;;2.40;;
63693;SDS011;49839;51.798;10.954;2022-07-22T09:13:00;4.90;;;2.42;;
63693;SDS011;49839;51.798;10.954;2022-07-22T09:15:31;3.42;;;1.95;;
63693;SDS011;49839;51.798;10.954;2022-07-22T09:18:02;2.53;;;1.70;;
63693;SDS011;49839;51.798;10.954;2022-07-22T09:20:33;4.55;;;2.03;;
63693;SDS011;49839;51.798;10.954;2022-07-22T09:23:02;2.85;;;1.50;;
63693;SDS011;49839;51.798;10.954;2022-07-22T09:25:36;2.53;;;1.45;;
63693;SDS011;49839;51.798;10.954;2022-07-22T09:28:15;3.95;;;1.50;;
63693;SDS011;49839;51.798;10.954;2022-07-22T09:30:46;3.35;;;1.58;;
63693;SDS011;49839;51.798;10.954;2022-07-22T09:33:15;2.05;;;1.50;;
63693;SDS011;49839;51.798;10.954;2022-07-22T09:35:45;2.47;;;1.13;;
63693;SDS011;49839;51.798;10.954;2022-07-22T09:38:16;2.85;;;1.60;;
63693;SDS011;49839;51.798;10.954;2022-07-22T09:40:45;3.15;;;1.65;;
63693;SDS011;49839;51.798;10.954;2022-07-22T09:43:15;3.58;;;1.73;;
63693;SDS011;49839;51.798;10.954;2022-07-22T09:45:45;2.38;;;1.50;;
63693;SDS011;49839;51.798;10.954;2022-07-22T09:48:15;2.53;;;1.30;;
63693;SDS011;49839;51.798;10.954;2022-07-22T09:50:46;1.95;;;1.50;;
63693;SDS011;49839;51.798;10.954;2022-07-22T09:53:16;1.58;;;1.25;;
63693;SDS011;49839;51.798;10.954;2022-07-22T09:55:45;3.15;;;1.30;;
63693;SDS011;49839;51.798;10.954;2022-07-22T09:58:13;2.50;;;1.50;;
63693;SDS011;49839;51.798;10.954;2022-07-22T10:00:42;2.55;;;1.40;;
63693;SDS011;49839;51.798;10.954;2022-07-22T10:03:11;2.00;;;1.30;;
63693;SDS011;49839;51.798;10.954;2022-07-22T10:05:41;2.42;;;1.30;;
63693;SDS011;49839;51.798;10.954;2022-07-22T10:10:38;4.78;;;1.30;;
63693;SDS011;49839;51.798;10.954;2022-07-22T10:13:07;2.88;;;1.10;;
63693;SDS011;49839;51.798;10.954;2022-07-22T10:15:36;2.05;;;1.30;;
63693;SDS011;49839;51.798;10.954;2022-07-22T10:20:33;1.35;;;1.15;;
63693;SDS011;49839;51.798;10.954;2022-07-22T10:23:03;1.63;;;1.30;;
63693;SDS011;49839;51.798;10.954;2022-07-22T10:25:48;2.78;;;1.48;;
63693;SDS011;49839;51.798;10.954;2022-07-22T10:28:21;1.42;;;1.00;;
63693;SDS011;49839;51.798;10.954;2022-07-22T10:30:51;1.58;;;0.90;;
63693;SDS011;49839;51.798;10.954;2022-07-22T10:33:19;1.70;;;1.30;;
63693;SDS011;49839;51.798;10.954;2022-07-22T10:35:55;2.20;;;1.40;;
63693;SDS011;49839;51.798;10.954;2022-07-22T10:38:25;1.58;;;1.40;;
63693;SDS011;49839;51.798;10.954;2022-07-22T10:40:56;3.33;;;1.40;;
63693;SDS011;49839;51.798;10.954;2022-07-22T10:43:26;2.00;;;1.20;;
63693;SDS011;49839;51.798;10.954;2022-07-22T10:45:54;2.20;;;1.10;;
63693;SDS011;49839;51.798;10.954;2022-07-22T10:51:07;2.85;;;1.10;;
63693;SDS011;49839;51.798;10.954;2022-07-22T10:53:40;3.28;;;1.10;;
63693;SDS011;49839;51.798;10.954;2022-07-22T10:56:14;1.52;;;1.00;;
63693;SDS011;49839;51.798;10.954;2022-07-22T10:58:50;2.00;;;0.90;;
63693;SDS011;49839;51.798;10.954;2022-07-22T11:01:21;3.10;;;1.15;;
63693;SDS011;49839;51.798;10.954;2022-07-22T11:03:51;2.47;;;0.93;;
63693;SDS011;49839;51.798;10.954;2022-07-22T11:06:21;1.80;;;1.00;;
63693;SDS011;49839;51.798;10.954;2022-07-22T11:08:53;3.60;;;1.00;;
63693;SDS011;49839;51.798;10.954;2022-07-22T11:11:35;3.40;;;1.15;;
63693;SDS011;49839;51.798;10.954;2022-07-22T11:14:12;1.80;;;1.15;;
63693;SDS011;49839;51.798;10.954;2022-07-22T11:16:54;3.37;;;1.20;;
63693;SDS011;49839;51.798;10.954;2022-07-22T11:21:52;2.10;;;1.08;;
63693;SDS011;49839;51.798;10.954;2022-07-22T11:24:21;2.10;;;0.80;;
63693;SDS011;49839;51.798;10.954;2022-07-22T11:26:51;1.85;;;0.93;;
63693;SDS011;49839;51.798;10.954;2022-07-22T11:29:24;1.75;;;1.10;;
63693;SDS011;49839;51.798;10.954;2022-07-22T11:31:53;1.63;;;1.10;;
63693;SDS011;49839;51.798;10.954;2022-07-22T11:34:22;2.58;;;1.45;;
63693;SDS011;49839;51.798;10.954;2022-07-22T11:36:51;2.15;;;1.55;;
63693;SDS011;49839;51.798;10.954;2022-07-22T11:39:21;5.50;;;1.60;;
63693;SDS011;49839;51.798;10.954;2022-07-22T11:41:51;2.38;;;1.63;;
63693;SDS011;49839;51.798;10.954;2022-07-22T11:44:21;4.03;;;1.75;;
63693;SDS011;49839;51.798;10.954;2022-07-22T11:46:50;2.15;;;1.70;;
63693;SDS011;49839;51.798;10.954;2022-07-22T11:49:19;2.80;;;1.90;;
63693;SDS011;49839;51.798;10.954;2022-07-22T11:51:48;4.38;;;2.03;;
63693;SDS011;49839;51.798;10.954;2022-07-22T11:54:16;2.45;;;1.58;;
63693;SDS011;49839;51.798;10.954;2022-07-22T11:56:44;4.72;;;1.70;;
63693;SDS011;49839;51.798;10.954;2022-07-22T11:59:13;3.58;;;1.80;;
63693;SDS011;49839;51.798;10.954;2022-07-22T12:01:44;3.95;;;2.20;;
63693;SDS011;49839;51.798;10.954;2022-07-22T12:04:14;3.45;;;2.15;;
63693;SDS011;49839;51.798;10.954;2022-07-22T12:06:43;5.57;;;2.60;;
63693;SDS011;49839;51.798;10.954;2022-07-22T12:09:13;3.85;;;2.25;;
63693;SDS011;49839;51.798;10.954;2022-07-22T12:11:43;3.40;;;2.30;;
63693;SDS011;49839;51.798;10.954;2022-07-22T12:14:15;3.92;;;2.15;;
63693;SDS011;49839;51.798;10.954;2022-07-22T12:16:52;3.38;;;2.30;;
63693;SDS011;49839;51.798;10.954;2022-07-22T12:19:22;3.47;;;2.00;;
63693;SDS011;49839;51.798;10.954;2022-07-22T12:21:52;4.72;;;2.35;;
63693;SDS011;49839;51.798;10.954;2022-07-22T12:24:25;3.58;;;2.33;;
63693;SDS011;49839;51.798;10.954;2022-07-22T12:26:55;5.53;;;2.20;;
63693;SDS011;49839;51.798;10.954;2022-07-22T12:29:25;4.15;;;2.28;;
63693;SDS011;49839;51.798;10.954;2022-07-22T12:31:54;4.38;;;2.20;;
63693;SDS011;49839;51.798;10.954;2022-07-22T12:34:31;6.90;;;2.08;;
63693;SDS011;49839;51.798;10.954;2022-07-22T12:37:01;2.58;;;1.73;;
63693;SDS011;49839;51.798;10.954;2022-07-22T12:39:38;3.05;;;1.90;;
63693;SDS011;49839;51.798;10.954;2022-07-22T12:42:15;4.22;;;2.35;;
63693;SDS011;49839;51.798;10.954;2022-07-22T12:44:59;2.70;;;1.90;;
63693;SDS011;49839;51.798;10.954;2022-07-22T12:47:46;3.78;;;2.20;;
63693;SDS011;49839;51.798;10.954;2022-07-22T12:50:19;3.42;;;2.47;;
63693;SDS011;49839;51.798;10.954;2022-07-22T12:52:49;3.72;;;2.00;;
63693;SDS011;49839;51.798;10.954;2022-07-22T12:55:39;3.67;;;2.00;;
63693;SDS011;49839;51.798;10.954;2022-07-22T12:58:08;3.60;;;2.22;;
63693;SDS011;49839;51.798;10.954;2022-07-22T13:00:39;5.93;;;2.17;;
63693;SDS011;49839;51.798;10.954;2022-07-22T13:03:08;3.33;;;2.55;;
63693;SDS011;49839;51.798;10.954;2022-07-22T13:05:35;3.58;;;2.38;;
63693;SDS011;49839;51.798;10.954;2022-07-22T13:08:07;3.75;;;2.30;;
63693;SDS011;49839;51.798;10.954;2022-07-22T13:10:35;5.32;;;2.17;;
63693;SDS011;49839;51.798;10.954;2022-07-22T13:13:04;4.68;;;2.10;;
63693;SDS011;49839;51.798;10.954;2022-07-22T13:15:33;3.25;;;1.90;;
63693;SDS011;49839;51.798;10.954;2022-07-22T13:18:03;5.03;;;1.63;;
63693;SDS011;49839;51.798;10.954;2022-07-22T13:20:31;2.40;;;1.55;;
63693;SDS011;49839;51.798;10.954;2022-07-22T13:22:59;2.83;;;1.58;;
63693;SDS011;49839;51.798;10.954;2022-07-22T13:25:27;3.75;;;1.50;;
63693;SDS011;49839;51.798;10.954;2022-07-22T13:27:57;4.35;;;1.75;;
63693;SDS011;49839;51.798;10.954;2022-07-22T13:30:24;3.67;;;1.90;;
63693;SDS011;49839;51.798;10.954;2022-07-22T13:32:52;3.55;;;1.70;;
63693;SDS011;49839;51.798;10.954;2022-07-22T13:35:21;4.20;;;1.67;;
63693;SDS011;49839;51.798;10.954;2022-07-22T13:37:49;3.72;;;1.85;;
63693;SDS011;49839;51.798;10.954;2022-07-22T13:40:16;3.40;;;1.80;;
63693;SDS011;49839;51.798;10.954;2022-07-22T13:42:44;4.18;;;1.67;;
63693;SDS011;49839;51.798;10.954;2022-07-22T13:45:12;4.68;;;1.95;;
63693;SDS011;49839;51.798;10.954;2022-07-22T13:47:40;4.13;;;1.80;;
63693;SDS011;49839;51.798;10.954;2022-07-22T13:50:08;3.17;;;1.73;;
63693;SDS011;49839;51.798;10.954;2022-07-22T13:52:38;3.67;;;1.90;;
63693;SDS011;49839;51.798;10.954;2022-07-22T13:55:06;2.75;;;1.83;;
63693;SDS011;49839;51.798;10.954;2022-07-22T13:57:34;2.50;;;1.60;;
63693;SDS011;49839;51.798;10.954;2022-07-22T14:00:02;4.00;;;1.55;;
63693;SDS011;49839;51.798;10.954;2022-07-22T14:02:37;2.72;;;1.65;;
63693;SDS011;49839;51.798;10.954;2022-07-22T14:05:06;3.03;;;1.77;;
63693;SDS011;49839;51.798;10.954;2022-07-22T14:07:34;3.90;;;1.55;;
63693;SDS011;49839;51.798;10.954;2022-07-22T14:10:03;3.00;;;1.55;;
63693;SDS011;49839;51.798;10.954;2022-07-22T14:12:31;4.07;;;2.03;;
63693;SDS011;49839;51.798;10.954;2022-07-22T14:14:59;3.55;;;1.92;;
63693;SDS011;49839;51.798;10.954;2022-07-22T14:17:29;3.38;;;1.98;;
63693;SDS011;49839;51.798;10.954;2022-07-22T14:19:57;5.65;;;1.92;;
63693;SDS011;49839;51.798;10.954;2022-07-22T14:22:26;3.13;;;1.80;;
63693;SDS011;49839;51.798;10.954;2022-07-22T14:24:54;3.03;;;1.63;;
63693;SDS011;49839;51.798;10.954;2022-07-22T14:27:23;2.30;;;1.58;;
63693;SDS011;49839;51.798;10.954;2022-07-22T14:29:51;2.90;;;2.00;;
63693;SDS011;49839;51.798;10.954;2022-07-22T14:32:18;2.47;;;1.60;;
63693;SDS011;49839;51.798;10.954;2022-07-22T14:34:46;3.35;;;1.58;;
63693;SDS011;49839;51.798;10.954;2022-07-22T14:37:14;2.97;;;1.80;;
63693;SDS011;49839;51.798;10.954;2022-07-22T14:39:41;3.22;;;1.70;;
63693;SDS011;49839;51.798;10.954;2022-07-22T14:42:10;3.20;;;1.60;;
63693;SDS011;49839;51.798;10.954;2022-07-22T14:44:39;3.05;;;1.75;;
63693;SDS011;49839;51.798;10.954;2022-07-22T14:47:06;3.10;;;1.50;;
63693;SDS011;49839;51.798;10.954;2022-07-22T14:49:34;2.78;;;1.63;;
63693;SDS011;49839;51.798;10.954;2022-07-22T14:52:01;2.53;;;1.75;;
63693;SDS011;49839;51.798;10.954;2022-07-22T14:54:29;2.80;;;1.70;;
63693;SDS011;49839;51.798;10.954;2022-07-22T14:56:57;4.00;;;1.80;;
63693;SDS011;49839;51.798;10.954;2022-07-22T14:59:24;2.55;;;1.77;;